Time,TemperatureF,DewpointF,PressureIn,WindDirection,WindDirectionDegrees,WindSpeedMPH,WindSpeedGustMPH,Humidity,HourlyPrecipIn,Conditions,Clouds,dailyrainin,SoftwareType,DateUTC
2013-06-01 00:04:00,77.9,70.5,29.67,ENE,68,4.0,11.6,78,0.00,,---,0.12,VWS V13.01,2013-06-01 04:04:00,
2013-06-01 00:09:00,77.9,70.5,29.67,ESE,112,8.3,8.3,78,0.00,,---,0.12,VWS V13.01,2013-06-01 04:09:00,
2013-06-01 00:14:00,77.7,70.3,29.67,South,180,4.7,8.3,78,0.00,,---,0.12,VWS V13.01,2013-06-01 04:14:00,
2013-06-01 00:19:00,77.7,70.3,29.68,NE,45,1.8,7.8,78,0.00,,---,0.12,VWS V13.01,2013-06-01 04:19:00,
2013-06-01 00:24:00,77.7,70.3,29.67,ESE,112,5.8,9.4,78,0.00,,---,0.12,VWS V13.01,2013-06-01 04:24:00,
2013-06-01 00:34:00,77.5,70.1,29.67,ESE,112,6.7,6.7,78,0.00,,---,0.12,VWS V13.01,2013-06-01 04:34:00,
2013-06-01 00:44:00,77.2,69.8,29.67,ENE,68,4.3,6.7,78,0.00,,---,0.12,VWS V13.01,2013-06-01 04:44:00,
2013-06-01 00:54:00,76.6,69.6,29.67,SSE,158,0.0,4.7,79,0.00,,---,0.12,VWS V13.01,2013-06-01 04:54:00,
2013-06-01 00:59:00,76.6,70.0,29.67,East,90,7.8,7.8,80,0.00,,---,0.12,VWS V13.01,2013-06-01 04:59:00,
2013-06-01 01:04:00,76.6,70.0,29.67,East,90,7.8,7.8,80,0.00,,---,0.08,VWS V13.01,2013-06-01 05:04:00,
2013-06-01 01:14:00,76.1,69.1,29.66,SE,135,0.0,0.0,79,0.00,,---,0.08,VWS V13.01,2013-06-01 05:14:00,
2013-06-01 01:19:00,76.1,69.1,29.66,SE,135,0.0,0.0,79,0.00,,---,0.08,VWS V13.01,2013-06-01 05:19:00,
2013-06-01 01:29:00,76.3,69.7,29.65,SE,135,0.0,0.0,80,0.02,,---,0.10,VWS V13.01,2013-06-01 05:29:00,
2013-06-01 01:39:00,76.3,69.7,29.65,ESE,112,2.2,2.2,80,0.02,,---,0.10,VWS V13.01,2013-06-01 05:39:00,
2013-06-01 01:44:00,76.5,69.8,29.65,SE,135,0.0,2.2,80,0.02,,---,0.10,VWS V13.01,2013-06-01 05:44:00,
2013-06-01 01:54:00,76.6,70.0,29.65,ESE,112,0.4,0.4,80,0.02,,---,0.10,VWS V13.01,2013-06-01 05:54:00,
2013-06-01 02:04:00,76.6,70.0,29.65,ESE,112,0.0,0.0,80,0.02,,---,0.10,VWS V13.01,2013-06-01 06:04:00,
2013-06-01 02:09:00,76.6,70.0,29.65,ESE,112,0.0,0.0,80,0.02,,---,0.10,VWS V13.01,2013-06-01 06:09:00,
2013-06-01 02:14:00,76.6,70.0,29.64,ESE,112,0.0,0.0,80,0.02,,---,0.10,VWS V13.01,2013-06-01 06:14:00,
2013-06-01 02:19:00,77.0,70.4,29.64,ESE,112,2.2,2.2,80,0.02,,---,0.10,VWS V13.01,2013-06-01 06:19:00,
2013-06-01 02:29:00,77.2,70.5,29.63,South,180,5.6,5.6,80,0.02,,---,0.10,VWS V13.01,2013-06-01 06:29:00,
2013-06-01 02:39:00,77.4,70.7,29.63,SSE,158,5.4,6.5,80,0.00,,---,0.10,VWS V13.01,2013-06-01 06:39:00,
2013-06-01 02:44:00,77.5,70.9,29.63,ENE,68,4.3,5.4,80,0.00,,---,0.10,VWS V13.01,2013-06-01 06:44:00,
2013-06-01 02:54:00,77.5,70.5,29.63,SSE,158,0.2,9.4,79,0.00,,---,0.10,VWS V13.01,2013-06-01 06:54:00,
2013-06-01 02:59:00,77.5,70.5,29.63,SE,135,0.0,2.2,79,0.00,,---,0.10,VWS V13.01,2013-06-01 06:59:00,
2013-06-01 03:09:00,77.4,70.3,29.63,SSE,158,4.0,4.0,79,0.00,,---,0.10,VWS V13.01,2013-06-01 07:09:00,
2013-06-01 03:19:00,77.4,70.3,29.63,SSE,158,4.0,4.0,79,0.00,,---,0.10,VWS V13.01,2013-06-01 07:19:00,
2013-06-01 03:24:00,77.4,70.3,29.63,SE,135,2.2,4.0,79,0.00,,---,0.10,VWS V13.01,2013-06-01 07:24:00,
2013-06-01 03:34:00,77.4,70.3,29.62,ESE,112,0.0,1.1,79,0.00,,---,0.10,VWS V13.01,2013-06-01 07:34:00,
2013-06-01 03:44:00,77.4,70.3,29.62,SE,135,0.0,0.0,79,0.00,,---,0.10,VWS V13.01,2013-06-01 07:44:00,
2013-06-01 03:54:00,77.2,69.8,29.62,ESE,112,3.6,3.6,78,0.00,,---,0.10,VWS V13.01,2013-06-01 07:54:00,
2013-06-01 04:04:00,77.4,70.0,29.62,SE,135,0.0,1.3,78,0.00,,---,0.10,VWS V13.01,2013-06-01 08:04:00,
2013-06-01 04:14:00,77.4,70.3,29.62,SE,135,0.0,0.0,79,0.00,,---,0.10,VWS V13.01,2013-06-01 08:14:00,
2013-06-01 04:24:00,77.2,70.2,29.61,ESE,112,2.2,2.2,79,0.00,,---,0.10,VWS V13.01,2013-06-01 08:24:00,
2013-06-01 04:29:00,77.2,70.2,29.61,ESE,112,4.0,4.0,79,0.00,,---,0.10,VWS V13.01,2013-06-01 08:29:00,
2013-06-01 04:34:00,77.2,70.2,29.61,ESE,112,0.0,4.0,79,0.00,,---,0.10,VWS V13.01,2013-06-01 08:34:00,
2013-06-01 04:44:00,77.2,69.8,29.61,South,180,2.5,2.5,78,0.00,,---,0.10,VWS V13.01,2013-06-01 08:44:00,
2013-06-01 04:54:00,77.2,69.8,29.61,East,90,3.6,3.6,78,0.00,,---,0.10,VWS V13.01,2013-06-01 08:54:00,
2013-06-01 05:04:00,77.2,69.8,29.60,SE,135,2.5,2.5,78,0.00,,---,0.10,VWS V13.01,2013-06-01 09:04:00,
2013-06-01 05:09:00,77.2,69.8,29.60,SE,135,1.6,5.6,78,0.00,,---,0.10,VWS V13.01,2013-06-01 09:09:00,
2013-06-01 05:19:00,77.2,69.8,29.60,SE,135,0.0,4.0,78,0.00,,---,0.10,VWS V13.01,2013-06-01 09:19:00,
2013-06-01 05:24:00,77.2,70.2,29.60,ESE,112,1.1,2.5,79,0.00,,---,0.10,VWS V13.01,2013-06-01 09:24:00,
2013-06-01 05:29:00,77.2,70.2,29.61,ESE,112,0.0,1.1,79,0.00,,---,0.10,VWS V13.01,2013-06-01 09:29:00,
2013-06-01 05:39:00,77.4,70.3,29.61,SE,135,8.1,8.1,79,0.00,,---,0.10,VWS V13.01,2013-06-01 09:39:00,
2013-06-01 05:49:00,77.4,70.3,29.61,ESE,112,6.5,6.5,79,0.00,,---,0.10,VWS V13.01,2013-06-01 09:49:00,
2013-06-01 05:54:00,77.5,70.1,29.61,East,90,9.6,9.6,78,0.00,,---,0.10,VWS V13.01,2013-06-01 09:54:00,
2013-06-01 06:04:00,77.5,70.1,29.62,ESE,112,5.6,5.6,78,0.00,,---,0.10,VWS V13.01,2013-06-01 10:04:00,
2013-06-01 06:09:00,77.5,70.1,29.62,East,90,0.4,6.7,78,0.00,,---,0.10,VWS V13.01,2013-06-01 10:09:00,
2013-06-01 06:19:00,77.5,70.1,29.62,ESE,112,1.1,2.2,78,0.00,,---,0.10,VWS V13.01,2013-06-01 10:19:00,
2013-06-01 06:24:00,77.5,70.1,29.63,SE,135,1.1,6.0,78,0.00,,---,0.10,VWS V13.01,2013-06-01 10:24:00,
2013-06-01 06:29:00,77.5,70.1,29.63,ENE,68,6.3,6.3,78,0.00,,---,0.10,VWS V13.01,2013-06-01 10:29:00,
2013-06-01 06:39:00,77.5,70.1,29.63,SE,135,0.0,4.3,78,0.00,,---,0.10,VWS V13.01,2013-06-01 10:39:00,
2013-06-01 06:49:00,77.7,70.3,29.63,ESE,112,2.7,6.0,78,0.00,,---,0.10,VWS V13.01,2013-06-01 10:49:00,
2013-06-01 06:54:00,77.9,70.5,29.63,ESE,112,8.1,8.1,78,0.00,,---,0.10,VWS V13.01,2013-06-01 10:54:00,
2013-06-01 07:04:00,78.1,70.7,29.64,ENE,68,5.8,5.8,78,0.00,,---,0.10,VWS V13.01,2013-06-01 11:04:00,
2013-06-01 07:14:00,78.1,70.7,29.64,East,90,4.5,4.5,78,0.00,,---,0.10,VWS V13.01,2013-06-01 11:14:00,
2013-06-01 07:24:00,78.1,70.7,29.65,ESE,112,3.6,3.8,78,0.00,,---,0.10,VWS V13.01,2013-06-01 11:24:00,
2013-06-01 07:34:00,78.3,70.5,29.65,SE,135,6.5,6.9,77,0.00,,---,0.10,VWS V13.01,2013-06-01 11:34:00,
2013-06-01 07:39:00,78.6,70.8,29.65,SE,135,4.5,6.5,77,0.00,,---,0.10,VWS V13.01,2013-06-01 11:39:00,
2013-06-01 07:49:00,78.6,70.8,29.65,ESE,112,3.6,8.3,77,0.00,,---,0.10,VWS V13.01,2013-06-01 11:49:00,
2013-06-01 07:59:00,78.6,70.8,29.65,ESE,112,3.1,6.9,77,0.00,,---,0.10,VWS V13.01,2013-06-01 11:59:00,
2013-06-01 08:04:00,79.0,71.2,29.65,SSE,158,0.7,3.1,77,0.00,,---,0.10,VWS V13.01,2013-06-01 12:04:00,
2013-06-01 08:14:00,79.0,71.2,29.66,South,180,0.0,0.7,77,0.00,,---,0.10,VWS V13.01,2013-06-01 12:14:00,
2013-06-01 08:24:00,79.0,71.2,29.66,South,180,4.7,7.8,77,0.00,,---,0.10,VWS V13.01,2013-06-01 12:24:00,
2013-06-01 08:29:00,79.0,71.2,29.66,SSE,158,0.0,4.7,77,0.00,,---,0.10,VWS V13.01,2013-06-01 12:29:00,
2013-06-01 08:34:00,79.3,71.5,29.65,SSE,158,0.0,4.7,77,0.00,,---,0.10,VWS V13.01,2013-06-01 12:34:00,
2013-06-01 08:39:00,79.9,72.0,29.65,SSE,158,2.7,2.7,77,0.00,,---,0.10,VWS V13.01,2013-06-01 12:39:00,
2013-06-01 08:49:00,80.8,72.5,29.65,SE,135,1.1,1.3,76,0.00,,---,0.10,VWS V13.01,2013-06-01 12:49:00,
2013-06-01 08:54:00,80.8,72.5,29.65,SE,135,1.6,1.6,76,0.00,,---,0.10,VWS V13.01,2013-06-01 12:54:00,
2013-06-01 08:59:00,81.1,72.9,29.66,ESE,112,2.5,2.5,76,0.00,,---,0.10,VWS V13.01,2013-06-01 12:59:00,
2013-06-01 09:09:00,81.7,73.0,29.66,NE,45,4.5,4.5,75,0.00,,---,0.06,VWS V13.01,2013-06-01 13:09:00,
2013-06-01 09:19:00,82.6,73.5,29.66,SE,135,2.5,3.8,74,0.00,,---,0.06,VWS V13.01,2013-06-01 13:19:00,
2013-06-01 09:29:00,83.3,73.8,29.65,ENE,68,0.2,5.4,73,0.00,,---,0.06,VWS V13.01,2013-06-01 13:29:00,
2013-06-01 09:34:00,83.8,74.3,29.65,ESE,112,4.0,4.0,73,0.00,,---,0.06,VWS V13.01,2013-06-01 13:34:00,
2013-06-01 09:44:00,84.2,74.2,29.65,East,90,0.7,4.0,72,0.00,,---,0.06,VWS V13.01,2013-06-01 13:44:00,
2013-06-01 09:54:00,84.7,74.3,29.66,ENE,68,4.0,4.0,71,0.00,,---,0.06,VWS V13.01,2013-06-01 13:54:00,
2013-06-01 09:59:00,84.7,74.3,29.66,ESE,112,7.8,7.8,71,0.00,,---,0.06,VWS V13.01,2013-06-01 13:59:00,
2013-06-01 10:09:00,84.7,73.9,29.66,ESE,112,5.6,5.6,70,0.00,,---,0.06,VWS V13.01,2013-06-01 14:09:00,
2013-06-01 10:19:00,85.3,73.5,29.66,ESE,112,12.3,12.3,68,0.00,,---,0.06,VWS V13.01,2013-06-01 14:19:00,
2013-06-01 10:29:00,84.9,73.6,29.67,East,90,3.8,3.8,69,0.00,,---,0.06,VWS V13.01,2013-06-01 14:29:00,
2013-06-01 10:39:00,85.6,73.9,29.66,ESE,112,11.9,11.9,68,0.00,,---,0.06,VWS V13.01,2013-06-01 14:39:00,
2013-06-01 10:49:00,86.4,74.1,29.67,ESE,112,9.0,11.9,67,0.00,,---,0.06,VWS V13.01,2013-06-01 14:49:00,
2013-06-01 10:54:00,85.6,73.4,29.67,NE,45,7.6,9.0,67,0.00,,---,0.06,VWS V13.01,2013-06-01 14:54:00,
2013-06-01 11:04:00,84.9,73.2,29.67,ESE,112,6.0,6.0,68,0.00,,---,0.06,VWS V13.01,2013-06-01 15:04:00,
2013-06-01 11:14:00,85.6,73.9,29.67,ESE,112,5.6,5.8,68,0.00,,---,0.06,VWS V13.01,2013-06-01 15:14:00,
2013-06-01 11:24:00,85.6,73.9,29.67,ESE,112,9.8,9.8,68,0.00,,---,0.06,VWS V13.01,2013-06-01 15:24:00,
2013-06-01 11:34:00,84.7,73.0,29.67,East,90,9.6,9.6,68,0.00,,---,0.06,VWS V13.01,2013-06-01 15:34:00,
2013-06-01 11:39:00,84.7,73.0,29.67,East,90,9.6,9.6,68,0.00,,---,0.06,VWS V13.01,2013-06-01 15:39:00,
2013-06-01 11:49:00,84.9,74.1,29.66,SE,135,6.5,10.1,70,0.00,,---,0.06,VWS V13.01,2013-06-01 15:49:00,
2013-06-01 11:59:00,85.8,73.6,29.66,SSE,158,5.4,13.0,67,0.00,,---,0.06,VWS V13.01,2013-06-01 15:59:00,
2013-06-01 12:09:00,86.2,74.4,29.66,SE,135,4.0,4.0,68,0.00,,---,0.06,VWS V13.01,2013-06-01 16:09:00,
2013-06-01 12:19:00,86.2,73.5,29.66,East,90,1.8,8.3,66,0.00,,---,0.06,VWS V13.01,2013-06-01 16:19:00,
2013-06-01 12:24:00,85.3,73.1,29.66,South,180,6.5,6.5,67,0.00,,---,0.06,VWS V13.01,2013-06-01 16:24:00,
2013-06-01 12:34:00,84.9,73.6,29.66,ESE,112,5.4,5.4,69,0.00,,---,0.06,VWS V13.01,2013-06-01 16:34:00,
2013-06-01 12:39:00,84.7,73.0,29.66,ESE,112,4.7,5.4,68,0.00,,---,0.06,VWS V13.01,2013-06-01 16:39:00,
2013-06-01 12:49:00,84.7,73.0,29.66,ENE,68,5.1,5.4,68,0.00,,---,0.06,VWS V13.01,2013-06-01 16:49:00,
2013-06-01 12:54:00,82.0,72.1,29.66,ENE,68,4.7,11.2,72,0.00,,---,0.06,VWS V13.01,2013-06-01 16:54:00,
2013-06-01 13:04:00,81.1,71.7,29.66,ENE,68,7.8,7.8,73,0.00,,---,0.06,VWS V13.01,2013-06-01 17:04:00,
2013-06-01 13:14:00,81.0,71.9,29.65,NE,45,4.5,4.5,74,0.00,,---,0.06,VWS V13.01,2013-06-01 17:14:00,
2013-06-01 13:24:00,80.2,72.0,29.65,NE,45,7.4,7.4,76,0.00,,---,0.06,VWS V13.01,2013-06-01 17:24:00,
2013-06-01 13:29:00,80.2,72.0,29.65,ESE,112,2.9,7.4,76,0.00,,---,0.06,VWS V13.01,2013-06-01 17:29:00,
2013-06-01 13:39:00,80.4,72.6,29.65,ENE,68,4.7,4.7,77,0.00,,---,0.06,VWS V13.01,2013-06-01 17:39:00,
2013-06-01 13:44:00,80.4,72.6,29.65,NE,45,2.0,4.7,77,0.00,,---,0.06,VWS V13.01,2013-06-01 17:44:00,
2013-06-01 13:49:00,80.4,72.6,29.65,ENE,68,4.0,4.0,77,0.00,,---,0.06,VWS V13.01,2013-06-01 17:49:00,
2013-06-01 13:59:00,80.2,72.0,29.64,East,90,6.7,6.7,76,0.00,,---,0.06,VWS V13.01,2013-06-01 17:59:00,
2013-06-01 14:04:00,80.2,72.0,29.64,ESE,112,4.9,6.7,76,0.00,,---,0.06,VWS V13.01,2013-06-01 18:04:00,
2013-06-01 14:14:00,79.9,71.6,29.63,ESE,112,5.4,7.8,76,0.00,,---,0.06,VWS V13.01,2013-06-01 18:14:00,
2013-06-01 14:24:00,79.9,71.6,29.63,SE,135,3.4,3.4,76,0.00,,---,0.06,VWS V13.01,2013-06-01 18:24:00,
2013-06-01 14:34:00,79.9,72.0,29.63,ESE,112,5.4,7.6,77,0.02,,---,0.08,VWS V13.01,2013-06-01 18:34:00,
2013-06-01 14:44:00,79.5,71.7,29.64,ESE,112,6.3,6.3,77,0.02,,---,0.08,VWS V13.01,2013-06-01 18:44:00,
2013-06-01 14:49:00,79.3,71.5,29.63,ESE,112,2.7,6.3,77,0.02,,---,0.08,VWS V13.01,2013-06-01 18:49:00,
2013-06-01 14:59:00,78.6,70.8,29.63,ESE,112,3.1,8.1,77,0.04,,---,0.10,VWS V13.01,2013-06-01 18:59:00,
2013-06-01 15:04:00,78.6,71.2,29.63,ESE,112,7.2,7.2,78,0.04,,---,0.10,VWS V13.01,2013-06-01 19:04:00,
2013-06-01 15:14:00,78.4,71.0,29.64,South,180,5.8,5.8,78,0.06,,---,0.12,VWS V13.01,2013-06-01 19:14:00,
2013-06-01 15:24:00,77.9,70.9,29.63,SE,135,6.3,6.5,79,0.08,,---,0.14,VWS V13.01,2013-06-01 19:24:00,
2013-06-01 15:29:00,77.9,70.9,29.63,ESE,112,0.0,6.3,79,0.08,,---,0.14,VWS V13.01,2013-06-01 19:29:00,
2013-06-01 15:39:00,77.9,70.5,29.63,South,180,2.9,2.9,78,0.08,,---,0.16,VWS V13.01,2013-06-01 19:39:00,
2013-06-01 15:49:00,77.9,70.5,29.63,SSW,202,6.3,6.3,78,0.06,,---,0.16,VWS V13.01,2013-06-01 19:49:00,
2013-06-01 15:59:00,77.7,70.3,29.63,SSE,158,1.8,1.8,78,0.08,,---,0.18,VWS V13.01,2013-06-01 19:59:00,
2013-06-01 16:09:00,77.5,70.5,29.64,SSW,202,2.9,2.9,79,0.06,,---,0.18,VWS V13.01,2013-06-01 20:09:00,
2013-06-01 16:14:00,77.4,70.0,29.63,SSE,158,3.6,3.8,78,0.06,,---,0.18,VWS V13.01,2013-06-01 20:14:00,
2013-06-01 16:24:00,77.2,70.2,29.64,ENE,68,4.7,4.7,79,0.04,,---,0.18,VWS V13.01,2013-06-01 20:24:00,
2013-06-01 16:34:00,77.2,70.5,29.63,SSE,158,1.6,1.6,80,0.02,,---,0.18,VWS V13.01,2013-06-01 20:34:00,
2013-06-01 16:44:00,77.0,70.4,29.63,South,180,0.2,5.6,80,0.08,,---,0.24,VWS V13.01,2013-06-01 20:44:00,
2013-06-01 16:54:00,76.8,70.2,29.63,SSE,158,0.4,2.2,80,0.06,,---,0.24,VWS V13.01,2013-06-01 20:54:00,
2013-06-01 17:04:00,76.8,70.2,29.63,SE,135,0.0,2.5,80,0.08,,---,0.26,VWS V13.01,2013-06-01 21:04:00,
2013-06-01 17:14:00,76.8,70.2,29.63,SE,135,3.6,3.6,80,0.10,,---,0.29,VWS V13.01,2013-06-01 21:14:00,
2013-06-01 17:19:00,76.8,70.2,29.63,ESE,112,0.2,4.3,80,0.10,,---,0.29,VWS V13.01,2013-06-01 21:19:00,
2013-06-01 17:29:00,76.8,70.2,29.62,SE,135,1.6,8.1,80,0.16,,---,0.35,VWS V13.01,2013-06-01 21:29:00,
2013-06-01 17:34:00,76.6,70.0,29.61,South,180,1.1,1.6,80,0.16,,---,0.35,VWS V13.01,2013-06-01 21:34:00,
2013-06-01 17:44:00,76.6,70.4,29.61,SSE,158,2.2,4.5,81,0.12,,---,0.37,VWS V13.01,2013-06-01 21:44:00,
2013-06-01 17:49:00,76.8,70.6,29.62,SSE,158,0.0,2.2,81,0.12,,---,0.37,VWS V13.01,2013-06-01 21:49:00,
2013-06-01 17:59:00,76.8,70.2,29.63,SSE,158,0.0,0.0,80,0.12,,---,0.39,VWS V13.01,2013-06-01 21:59:00,
2013-06-01 18:09:00,76.8,70.2,29.63,SSE,158,2.2,2.2,80,0.14,,---,0.43,VWS V13.01,2013-06-01 22:09:00,
2013-06-01 18:14:00,76.8,70.2,29.63,SSE,158,6.5,6.5,80,0.14,,---,0.43,VWS V13.01,2013-06-01 22:14:00,
2013-06-01 18:24:00,76.8,70.6,29.63,SE,135,2.0,2.0,81,0.10,,---,0.45,VWS V13.01,2013-06-01 22:24:00,
2013-06-01 18:29:00,76.8,70.6,29.64,ESE,112,0.0,5.1,81,0.10,,---,0.45,VWS V13.01,2013-06-01 22:29:00,
2013-06-01 18:39:00,76.8,70.6,29.64,South,180,3.6,3.6,81,0.08,,---,0.45,VWS V13.01,2013-06-01 22:39:00,
2013-06-01 18:44:00,76.8,70.6,29.64,South,180,1.3,4.5,81,0.08,,---,0.45,VWS V13.01,2013-06-01 22:44:00,
2013-06-01 18:54:00,76.8,70.6,29.63,South,180,0.4,0.9,81,0.08,,---,0.47,VWS V13.01,2013-06-01 22:54:00,
2013-06-01 18:59:00,76.8,70.6,29.63,South,180,0.0,0.4,81,0.08,,---,0.47,VWS V13.01,2013-06-01 22:59:00,
2013-06-01 19:04:00,76.8,70.6,29.63,South,180,0.0,0.0,81,0.04,,---,0.47,VWS V13.01,2013-06-01 23:04:00,
2013-06-01 19:14:00,76.8,70.2,29.63,South,180,0.0,0.0,80,0.04,,---,0.47,VWS V13.01,2013-06-01 23:14:00,
2013-06-01 19:19:00,76.8,70.2,29.63,South,180,0.0,0.0,80,0.02,,---,0.47,VWS V13.01,2013-06-01 23:19:00,
2013-06-01 19:29:00,76.8,70.2,29.63,SSW,202,0.0,4.9,80,0.02,,---,0.47,VWS V13.01,2013-06-01 23:29:00,
2013-06-01 19:34:00,76.8,70.2,29.64,SSW,202,0.0,0.0,80,0.02,,---,0.47,VWS V13.01,2013-06-01 23:34:00,
2013-06-01 19:44:00,76.8,70.2,29.64,SSW,202,1.6,1.6,80,0.02,,---,0.47,VWS V13.01,2013-06-01 23:44:00,
2013-06-01 19:49:00,76.8,70.2,29.64,ESE,112,4.3,4.3,80,0.00,,---,0.47,VWS V13.01,2013-06-01 23:49:00,
2013-06-01 19:59:00,76.8,70.2,29.64,ESE,112,0.0,4.3,80,0.00,,---,0.47,VWS V13.01,2013-06-01 23:59:00,
2013-06-01 20:09:00,76.8,70.2,29.65,South,180,0.0,0.0,80,0.00,,---,0.47,VWS V13.01,2013-06-02 00:09:00,
2013-06-01 20:19:00,76.8,70.2,29.64,SSW,202,0.0,0.0,80,0.00,,---,0.47,VWS V13.01,2013-06-02 00:19:00,
2013-06-01 20:29:00,76.6,70.0,29.65,SSW,202,0.0,0.9,80,0.00,,---,0.47,VWS V13.01,2013-06-02 00:29:00,
2013-06-01 20:34:00,76.6,70.0,29.64,SW,225,1.3,1.3,80,0.00,,---,0.47,VWS V13.01,2013-06-02 00:34:00,
2013-06-01 20:44:00,76.6,70.0,29.65,SW,225,0.0,0.0,80,0.00,,---,0.47,VWS V13.01,2013-06-02 00:44:00,
2013-06-01 20:49:00,76.5,69.8,29.65,SW,225,0.0,0.0,80,0.00,,---,0.47,VWS V13.01,2013-06-02 00:49:00,
2013-06-01 20:59:00,76.3,69.7,29.65,SW,225,0.0,0.0,80,0.00,,---,0.47,VWS V13.01,2013-06-02 00:59:00,
2013-06-01 21:09:00,76.3,69.7,29.65,SW,225,0.0,0.0,80,0.00,,---,0.47,VWS V13.01,2013-06-02 01:09:00,
2013-06-01 21:14:00,76.3,69.7,29.65,SW,225,0.0,0.0,80,0.00,,---,0.47,VWS V13.01,2013-06-02 01:14:00,
2013-06-01 21:24:00,76.3,69.7,29.64,SW,225,0.0,0.0,80,0.00,,---,0.47,VWS V13.01,2013-06-02 01:24:00,
2013-06-01 21:29:00,76.1,69.5,29.65,SW,225,0.0,0.0,80,0.00,,---,0.47,VWS V13.01,2013-06-02 01:29:00,
2013-06-01 21:39:00,76.1,69.5,29.65,SW,225,0.0,0.0,80,0.00,,---,0.47,VWS V13.01,2013-06-02 01:39:00,
2013-06-01 21:49:00,76.1,69.8,29.65,SW,225,0.0,0.0,81,0.00,,---,0.47,VWS V13.01,2013-06-02 01:49:00,
2013-06-01 21:59:00,76.1,69.8,29.65,SW,225,0.0,0.0,81,0.00,,---,0.47,VWS V13.01,2013-06-02 01:59:00,
2013-06-01 22:04:00,75.9,69.7,29.65,SW,225,0.0,0.0,81,0.00,,---,0.43,VWS V13.01,2013-06-02 02:04:00,
2013-06-01 22:14:00,75.7,69.5,29.65,SW,225,0.0,0.0,81,0.00,,---,0.43,VWS V13.01,2013-06-02 02:14:00,
2013-06-01 22:24:00,75.7,69.5,29.65,SW,225,0.0,0.0,81,0.00,,---,0.43,VWS V13.01,2013-06-02 02:24:00,
2013-06-01 22:29:00,75.7,69.5,29.66,SW,225,0.0,0.0,81,0.00,,---,0.43,VWS V13.01,2013-06-02 02:29:00,
2013-06-01 22:39:00,75.6,69.3,29.65,SW,225,0.0,0.0,81,0.00,,---,0.43,VWS V13.01,2013-06-02 02:39:00,
2013-06-01 22:49:00,75.4,69.2,29.66,SW,225,0.0,0.0,81,0.00,,---,0.43,VWS V13.01,2013-06-02 02:49:00,
2013-06-01 22:59:00,75.4,69.2,29.65,SW,225,0.0,0.0,81,0.00,,---,0.43,VWS V13.01,2013-06-02 02:59:00,
2013-06-01 23:09:00,75.2,69.0,29.66,SW,225,0.0,0.0,81,0.00,,---,0.43,VWS V13.01,2013-06-02 03:09:00,
2013-06-01 23:19:00,75.0,68.8,29.65,North,0,0.0,0.0,81,0.00,,---,0.43,VWS V13.01,2013-06-02 03:19:00,
2013-06-01 23:24:00,75.0,68.8,29.65,North,0,0.0,0.0,81,0.00,,---,0.43,VWS V13.01,2013-06-02 03:24:00,
2013-06-01 23:34:00,75.0,68.8,29.66,North,0,0.0,0.0,81,0.00,,---,0.43,VWS V13.01,2013-06-02 03:34:00,
2013-06-01 23:39:00,75.0,68.8,29.66,North,0,1.6,1.6,81,0.00,,---,0.43,VWS V13.01,2013-06-02 03:39:00,
2013-06-01 23:49:00,75.0,68.8,29.66,North,0,0.0,0.0,81,0.00,,---,0.43,VWS V13.01,2013-06-02 03:49:00,
2013-06-01 23:59:00,75.0,68.8,29.65,North,0,0.0,0.0,81,0.00,,---,0.43,VWS V13.01,2013-06-02 03:59:00,